Buoy 21539

sailwx.info

Track history (hours):
 
Tides and Currents Weather Stations Pressure Air Temp Water Temp Dewpoint Dewpoint Depression Visibility Wind Speed Wind Dir Waves Ship Positions

Drifting buoy 21539

Last reported at 2016-Feb-11 16:10 UTC. Time now 2016-Feb-11 19:07 UTC.
Position N 44°60' W 156°03'.

Barometer 993.8 mb
Water temperature 7.2 ° C

Date/timePositionNaut miles runAvg speedWind from/ knotsBaromVisibWave heightAir tempDewpointWater temp
2016-Feb-11 16:10N 44°60' W 156°03'0 0.1 993.8 7.2
2016-Feb-11 15:10N 44°60' W 156°02'0 0.0 992.7 7.2
2016-Feb-11 14:10N 44°60' W 156°02'3 2.6 991.8 7.2
2016-Feb-11 13:10N 45°01' W 156°05'1 0.3 991.3 7.2
2016-Feb-11 11:10N 45°01' W 156°05'3 0.3 989.6 7.2
2016-Feb-11 01:10N 45°02' W 156°10'0 0.0 980.3 7.2
2016-Feb-11 00:10N 45°02' W 156°10'0 0.0 979.5 7.2
2016-Feb-10 20:10N 45°02' W 156°10'0 0.0 978.7 7.1
2016-Feb-10 17:10N 45°02' W 156°10'1 0.3 976.9 7.0
2016-Feb-10 15:10N 45°03' W 156°10'0 0.0 976.0 7.0
2016-Feb-10 14:10N 45°03' W 156°10'1 0.4 976.0 7.0
2016-Feb-10 11:10N 45°03' W 156°12'0 0.0 976.8 7.0
2016-Feb-10 08:10N 45°03' W 156°12'0 0.0 977.9 7.0
2016-Feb-10 05:10N 45°03' W 156°12'1 0.7 978.7 7.1
2016-Feb-10 04:10N 45°02' W 156°13'0 0.0 978.6 7.1
2016-Feb-10 03:10N 45°02' W 156°13'1 1.2 978.6 7.1
2016-Feb-10 02:10N 45°02' W 156°11'2 0.4 978.7 7.1
2016-Feb-09 20:10N 45°04' W 156°12'0 0.0 981.1 7.0
2016-Feb-09 17:10N 45°04' W 156°12'1 0.8 982.5 7.0
2016-Feb-09 16:10N 45°04' W 156°13'1 1.2 982.8 7.0
2016-Feb-09 15:10N 45°04' W 156°15'4 1.8 983.2 7.0
2016-Feb-09 13:10N 45°01' W 156°12'0 0.0 984.4 7.0
2016-Feb-09 12:10N 45°01' W 156°12'0 0.0 985.1 7.0
2016-Feb-09 08:10N 45°01' W 156°12'0 0.0 987.7 7.1
2016-Feb-09 06:10N 45°01' W 156°12'1 1.4 987.8 7.1
2016-Feb-09 05:10N 45°01' W 156°14'1 0.9 988.1 7.1
2016-Feb-09 04:10N 45°01' W 156°13'1 0.6 988.6 7.1
2016-Feb-09 03:10N 45°00' W 156°13'0 0.0 989.3 7.2
2016-Feb-09 02:10N 45°00' W 156°13'0 0.2 990.1 7.2
2016-Feb-09 01:10N 45°00' W 156°13'0 0.0 990.6 7.2
2016-Feb-09 00:10N 45°00' W 156°13'0 0.0 991.6 7.2
2016-Feb-08 23:10N 45°00' W 156°13'2 1.5 993.1 7.2
2016-Feb-08 22:10N 44°59' W 156°15'0 0.0 994.9 7.2
2016-Feb-08 21:10N 44°59' W 156°15'2 0.6 996.6 7.2
2016-Feb-08 17:10N 44°57' W 156°14'1 0.2 998.8 7.2
2016-Feb-08 13:10N 44°56' W 156°14'2 2.1 1001.0 7.2
2016-Feb-08 12:10N 44°58' W 156°16'0 0.0 1001.2 7.2
2016-Feb-08 09:10N 44°58' W 156°16'1 0.2 1001.7 7.3
2016-Feb-08 05:10N 44°58' W 156°17'1 0.5 1001.8 7.2
2016-Feb-08 04:10N 44°58' W 156°17'0 0.0 1001.5 7.2
2016-Feb-08 03:10N 44°58' W 156°17'0 0.0 1000.8 7.2
2016-Feb-08 02:10N 44°58' W 156°17'0 0.0 1000.5 7.2
2016-Feb-08 01:10N 44°58' W 156°17'1 0.6 999.9 7.2
2016-Feb-07 23:10N 44°57' W 156°18'2 0.5 999.2 7.2
2016-Feb-07 20:10N 44°58' W 156°19'0 0.0 999.0 7.2
2016-Feb-07 17:10N 44°58' W 156°19'1 0.3 996.1 7.2
2016-Feb-07 15:10N 44°58' W 156°20'1 1.2 995.0 7.2
2016-Feb-07 14:10N 44°59' W 156°20'0 0.0 994.6 7.2
2016-Feb-07 12:10N 44°59' W 156°20'0 0.0 993.5 7.2
2016-Feb-07 11:10N 44°59' W 156°20'3 0.6 992.7 7.2
2016-Feb-07 06:10N 45°01' W 156°24'7 2.3 988.9 7.2
2016-Feb-07 03:10N 45°07' W 156°28'0 0.0 984.8 7.2
2016-Feb-07 02:10N 45°07' W 156°28'0 0.0 983.4 7.2
2016-Feb-07 00:10N 45°07' W 156°28'0 0.0 979.5 7.2
2016-Feb-06 23:10N 45°07' W 156°28'0 0.0 977.8 7.2
2016-Feb-06 22:10N 45°07' W 156°28'1 0.1 976.3 7.2
2016-Feb-06 17:10N 45°07' W 156°29'1 0.6 969.1 7.2
2016-Feb-06 16:10N 45°07' W 156°28'0 0.2 968.2 7.2
2016-Feb-06 15:10N 45°07' W 156°28'3 3.2 967.9 7.2
2016-Feb-06 14:10N 45°07' W 156°24'0 0.0 967.5 7.2
2016-Feb-06 13:10N 45°07' W 156°24'0 0.0 967.7 7.2
2016-Feb-06 12:10N 45°07' W 156°24'0 0.0 968.9 7.2
2016-Feb-06 08:10N 45°07' W 156°24'6 1.2 977.3 7.2
2016-Feb-06 03:10N 45°03' W 156°16'0 0.0 990.1 7.2
2016-Feb-06 00:10N 45°03' W 156°16'0 0.0 996.3 7.2
2016-Feb-05 23:10N 45°03' W 156°16'0 0.0 998.4 7.2
2016-Feb-05 22:10N 45°03' W 156°16'2 0.4 1000.3 7.2
2016-Feb-05 17:10N 45°05' W 156°18'0 0.4 1003.8 7.2
2016-Feb-05 16:10N 45°05' W 156°18'0 0.0 1004.5 7.2
2016-Feb-05 15:10N 45°05' W 156°18'3 0.4 1003.8 7.2
2016-Feb-05 08:10N 45°05' W 156°22'0 0.0 1002.8 7.2
2016-Feb-05 07:10N 45°05' W 156°22'0 0.1 1002.1 7.2
2016-Feb-05 02:10N 45°05' W 156°22'2 0.8 999.1 7.3
2016-Feb-05 00:10N 45°05' W 156°24'0 0.1 997.6 7.3
2016-Feb-04 18:10N 45°06' W 156°25'0 0.0 994.9 7.2
2016-Feb-04 17:10N 45°06' W 156°25'1 1.2 994.0 7.2
2016-Feb-04 16:10N 45°06' W 156°26'0 0.0 993.1 7.2
2016-Feb-04 15:10N 45°06' W 156°26'1 1.2 992.3 7.3
2016-Feb-04 14:10N 45°04' W 156°26'0 0.0 991.1 7.3
2016-Feb-04 13:10N 45°04' W 156°26'4 3.8 989.9 7.3
2016-Feb-04 12:10N 45°07' W 156°30'0 0.0 988.4 7.3
2016-Feb-04 07:10N 45°07' W 156°30'0 0.0 989.8 7.3
2016-Feb-04 05:10N 45°07' W 156°30'0 0.2 989.7 7.3
2016-Feb-04 04:10N 45°07' W 156°29'4 0.7 989.4 7.3
2016-Feb-03 23:10N 45°07' W 156°34'2 0.3 986.3 7.3
2016-Feb-03 17:10N 45°07' W 156°32'3 0.7 979.8 7.3
2016-Feb-03 13:10N 45°08' W 156°36'0 0.0 981.5 7.2
2016-Feb-03 09:10N 45°08' W 156°36'0 0.0 990.7 7.3
2016-Feb-03 07:10N 45°08' W 156°36'0 0.0 991.5 7.3
2016-Feb-03 04:10N 45°08' W 156°36'10 1.2 990.8 7.3
2016-Feb-02 20:10N 45°13' W 156°48'1 0.2 985.6 7.1
2016-Feb-02 15:10N 45°13' W 156°49'0 0.0 975.5 7.1
2016-Feb-02 14:10N 45°13' W 156°49'0 0.0 972.6 7.1
2016-Feb-02 13:10N 45°13' W 156°49'1 0.2 969.7 7.2
2016-Feb-02 07:10N 45°14' W 156°49'0 0.1 958.5 7.2
2016-Feb-02 05:10N 45°14' W 156°50'8 1.7 959.9 7.2
2016-Feb-02 00:10N 45°06' W 156°51'0 0.0 971.2 7.2
2016-Feb-01 20:10N 45°06' W 156°51'2 2.0 984.2 7.2
2016-Feb-01 19:10N 45°05' W 156°49'3 1.0 988.3 7.2
2016-Feb-01 16:10N 45°08' W 156°47'   998.4 7.2
Track history (hours):
 
Tides and Currents Weather Stations Pressure Air Temp Water Temp Dewpoint Dewpoint Depression Visibility Wind Speed Wind Dir Waves Ship Positions

Drifting buoy 21539

Last reported at 2016-Feb-11 16:10 UTC. Time now 2016-Feb-11 19:07 UTC.
Position N 44°60' W 156°03'.

Barometer 993.8 mb
Water temperature 7.2 ° C

Date/timePositionNaut miles runAvg speedWind from/ knotsBaromVisibWave heightAir tempDewpointWater temp
2016-Feb-11 16:10N 44°60' W 156°03'0 0.1 993.8 7.2
2016-Feb-11 15:10N 44°60' W 156°02'0 0.0 992.7 7.2
2016-Feb-11 14:10N 44°60' W 156°02'3 2.6 991.8 7.2
2016-Feb-11 13:10N 45°01' W 156°05'1 0.3 991.3 7.2
2016-Feb-11 11:10N 45°01' W 156°05'3 0.3 989.6 7.2
2016-Feb-11 01:10N 45°02' W 156°10'0 0.0 980.3 7.2
2016-Feb-11 00:10N 45°02' W 156°10'0 0.0 979.5 7.2
2016-Feb-10 20:10N 45°02' W 156°10'0 0.0 978.7 7.1
2016-Feb-10 17:10N 45°02' W 156°10'1 0.3 976.9 7.0
2016-Feb-10 15:10N 45°03' W 156°10'0 0.0 976.0 7.0
2016-Feb-10 14:10N 45°03' W 156°10'1 0.4 976.0 7.0
2016-Feb-10 11:10N 45°03' W 156°12'0 0.0 976.8 7.0
2016-Feb-10 08:10N 45°03' W 156°12'0 0.0 977.9 7.0
2016-Feb-10 05:10N 45°03' W 156°12'1 0.7 978.7 7.1
2016-Feb-10 04:10N 45°02' W 156°13'0 0.0 978.6 7.1
2016-Feb-10 03:10N 45°02' W 156°13'1 1.2 978.6 7.1
2016-Feb-10 02:10N 45°02' W 156°11'2 0.4 978.7 7.1
2016-Feb-09 20:10N 45°04' W 156°12'0 0.0 981.1 7.0
2016-Feb-09 17:10N 45°04' W 156°12'1 0.8 982.5 7.0
2016-Feb-09 16:10N 45°04' W 156°13'1 1.2 982.8 7.0
2016-Feb-09 15:10N 45°04' W 156°15'4 1.8 983.2 7.0
2016-Feb-09 13:10N 45°01' W 156°12'0 0.0 984.4 7.0
2016-Feb-09 12:10N 45°01' W 156°12'0 0.0 985.1 7.0
2016-Feb-09 08:10N 45°01' W 156°12'0 0.0 987.7 7.1
2016-Feb-09 06:10N 45°01' W 156°12'1 1.4 987.8 7.1
2016-Feb-09 05:10N 45°01' W 156°14'1 0.9 988.1 7.1
2016-Feb-09 04:10N 45°01' W 156°13'1 0.6 988.6 7.1
2016-Feb-09 03:10N 45°00' W 156°13'0 0.0 989.3 7.2
2016-Feb-09 02:10N 45°00' W 156°13'0 0.2 990.1 7.2
2016-Feb-09 01:10N 45°00' W 156°13'0 0.0 990.6 7.2
2016-Feb-09 00:10N 45°00' W 156°13'0 0.0 991.6 7.2
2016-Feb-08 23:10N 45°00' W 156°13'2 1.5 993.1 7.2
2016-Feb-08 22:10N 44°59' W 156°15'0 0.0 994.9 7.2
2016-Feb-08 21:10N 44°59' W 156°15'2 0.6 996.6 7.2
2016-Feb-08 17:10N 44°57' W 156°14'1 0.2 998.8 7.2
2016-Feb-08 13:10N 44°56' W 156°14'2 2.1 1001.0 7.2
2016-Feb-08 12:10N 44°58' W 156°16'0 0.0 1001.2 7.2
2016-Feb-08 09:10N 44°58' W 156°16'1 0.2 1001.7 7.3
2016-Feb-08 05:10N 44°58' W 156°17'1 0.5 1001.8 7.2
2016-Feb-08 04:10N 44°58' W 156°17'0 0.0 1001.5 7.2
2016-Feb-08 03:10N 44°58' W 156°17'0 0.0 1000.8 7.2
2016-Feb-08 02:10N 44°58' W 156°17'0 0.0 1000.5 7.2
2016-Feb-08 01:10N 44°58' W 156°17'1 0.6 999.9 7.2
2016-Feb-07 23:10N 44°57' W 156°18'2 0.5 999.2 7.2
2016-Feb-07 20:10N 44°58' W 156°19'0 0.0 999.0 7.2
2016-Feb-07 17:10N 44°58' W 156°19'1 0.3 996.1 7.2
2016-Feb-07 15:10N 44°58' W 156°20'1 1.2 995.0 7.2
2016-Feb-07 14:10N 44°59' W 156°20'0 0.0 994.6 7.2
2016-Feb-07 12:10N 44°59' W 156°20'0 0.0 993.5 7.2
2016-Feb-07 11:10N 44°59' W 156°20'3 0.6 992.7 7.2
2016-Feb-07 06:10N 45°01' W 156°24'7 2.3 988.9 7.2
2016-Feb-07 03:10N 45°07' W 156°28'0 0.0 984.8 7.2
2016-Feb-07 02:10N 45°07' W 156°28'0 0.0 983.4 7.2
2016-Feb-07 00:10N 45°07' W 156°28'0 0.0 979.5 7.2
2016-Feb-06 23:10N 45°07' W 156°28'0 0.0 977.8 7.2
2016-Feb-06 22:10N 45°07' W 156°28'1 0.1 976.3 7.2
2016-Feb-06 17:10N 45°07' W 156°29'1 0.6 969.1 7.2
2016-Feb-06 16:10N 45°07' W 156°28'0 0.2 968.2 7.2
2016-Feb-06 15:10N 45°07' W 156°28'3 3.2 967.9 7.2
2016-Feb-06 14:10N 45°07' W 156°24'0 0.0 967.5 7.2
2016-Feb-06 13:10N 45°07' W 156°24'0 0.0 967.7 7.2
2016-Feb-06 12:10N 45°07' W 156°24'0 0.0 968.9 7.2
2016-Feb-06 08:10N 45°07' W 156°24'6 1.2 977.3 7.2
2016-Feb-06 03:10N 45°03' W 156°16'0 0.0 990.1 7.2
2016-Feb-06 00:10N 45°03' W 156°16'0 0.0 996.3 7.2
2016-Feb-05 23:10N 45°03' W 156°16'0 0.0 998.4 7.2
2016-Feb-05 22:10N 45°03' W 156°16'2 0.4 1000.3 7.2
2016-Feb-05 17:10N 45°05' W 156°18'0 0.4 1003.8 7.2
2016-Feb-05 16:10N 45°05' W 156°18'0 0.0 1004.5 7.2
2016-Feb-05 15:10N 45°05' W 156°18'3 0.4 1003.8 7.2
2016-Feb-05 08:10N 45°05' W 156°22'0 0.0 1002.8 7.2
2016-Feb-05 07:10N 45°05' W 156°22'0 0.1 1002.1 7.2
2016-Feb-05 02:10N 45°05' W 156°22'2 0.8 999.1 7.3
2016-Feb-05 00:10N 45°05' W 156°24'0 0.1 997.6 7.3
2016-Feb-04 18:10N 45°06' W 156°25'0 0.0 994.9 7.2
2016-Feb-04 17:10N 45°06' W 156°25'1 1.2 994.0 7.2
2016-Feb-04 16:10N 45°06' W 156°26'0 0.0 993.1 7.2
2016-Feb-04 15:10N 45°06' W 156°26'1 1.2 992.3 7.3
2016-Feb-04 14:10N 45°04' W 156°26'0 0.0 991.1 7.3
2016-Feb-04 13:10N 45°04' W 156°26'4 3.8 989.9 7.3
2016-Feb-04 12:10N 45°07' W 156°30'0 0.0 988.4 7.3
2016-Feb-04 07:10N 45°07' W 156°30'0 0.0 989.8 7.3
2016-Feb-04 05:10N 45°07' W 156°30'0 0.2 989.7 7.3
2016-Feb-04 04:10N 45°07' W 156°29'4 0.7 989.4 7.3
2016-Feb-03 23:10N 45°07' W 156°34'2 0.3 986.3 7.3
2016-Feb-03 17:10N 45°07' W 156°32'3 0.7 979.8 7.3
2016-Feb-03 13:10N 45°08' W 156°36'0 0.0 981.5 7.2
2016-Feb-03 09:10N 45°08' W 156°36'0 0.0 990.7 7.3
2016-Feb-03 07:10N 45°08' W 156°36'0 0.0 991.5 7.3
2016-Feb-03 04:10N 45°08' W 156°36'10 1.2 990.8 7.3
2016-Feb-02 20:10N 45°13' W 156°48'1 0.2 985.6 7.1
2016-Feb-02 15:10N 45°13' W 156°49'0 0.0 975.5 7.1
2016-Feb-02 14:10N 45°13' W 156°49'0 0.0 972.6 7.1
2016-Feb-02 13:10N 45°13' W 156°49'1 0.2 969.7 7.2
2016-Feb-02 07:10N 45°14' W 156°49'0 0.1 958.5 7.2
2016-Feb-02 05:10N 45°14' W 156°50'8 1.7 959.9 7.2
2016-Feb-02 00:10N 45°06' W 156°51'0 0.0 971.2 7.2
2016-Feb-01 20:10N 45°06' W 156°51'2 2.0 984.2 7.2
2016-Feb-01 19:10N 45°05' W 156°49'3 1.0 988.3 7.2
2016-Feb-01 16:10N 45°08' W 156°47'   998.4 7.2

Dump ship's entire track history